createdAt,value
2023-05-02T00:02:08.723Z,0.30
2023-05-02T00:04:36.337Z,0.20
2023-05-02T00:07:03.864Z,0.20
2023-05-02T00:09:31.313Z,0.20
2023-05-02T00:11:58.736Z,0.20
2023-05-02T00:14:26.184Z,0.20
2023-05-02T00:16:53.642Z,0.30
2023-05-02T00:19:21.072Z,0.20
2023-05-02T00:21:49.503Z,0.30
2023-05-02T00:24:17.045Z,0.20
2023-05-02T00:26:44.823Z,0.20
2023-05-02T00:29:12.432Z,0.20
2023-05-02T00:31:41.765Z,0.20
2023-05-02T00:34:09.142Z,0.20
2023-05-02T00:36:36.490Z,0.20
2023-05-02T00:39:04.470Z,0.20
2023-05-02T00:41:32.105Z,0.20
2023-05-02T00:43:59.693Z,0.30
2023-05-02T00:46:27.229Z,0.20
2023-05-02T00:48:54.571Z,0.20
2023-05-02T00:51:22.477Z,0.30
2023-05-02T00:53:49.806Z,0.20
2023-05-02T00:56:17.190Z,0.30
2023-05-02T00:58:44.564Z,0.20
2023-05-02T01:01:30.579Z,0.20
2023-05-02T01:04:02.340Z,0.20
2023-05-02T01:06:48.774Z,0.20
2023-05-02T01:09:19.079Z,0.20
2023-05-02T01:11:50.049Z,0.30
2023-05-02T01:14:17.397Z,0.30
2023-05-02T01:16:44.923Z,0.30
2023-05-02T01:19:14.809Z,0.20
2023-05-02T01:21:42.837Z,0.20
2023-05-02T01:24:21.623Z,0.20
2023-05-02T01:26:53.175Z,0.20
2023-05-02T01:29:20.599Z,0.30
2023-05-02T01:31:49.289Z,0.30
2023-05-02T01:34:16.586Z,0.20
2023-05-02T01:36:45.172Z,0.20
2023-05-02T01:39:12.729Z,0.30
2023-05-02T01:41:40.065Z,0.30
2023-05-02T01:44:07.386Z,0.20
2023-05-02T01:46:35.576Z,0.20
2023-05-02T01:49:03.526Z,0.20
2023-05-02T01:51:34.850Z,0.20
2023-05-02T01:54:06.011Z,0.20
2023-05-02T01:56:37.037Z,0.20
2023-05-02T01:59:11.861Z,0.20
2023-05-02T02:01:40.219Z,0.20
2023-05-02T02:04:08.188Z,0.30
2023-05-02T02:06:35.967Z,0.20
2023-05-02T02:09:04.080Z,0.20
2023-05-02T02:12:00.578Z,0.20
2023-05-02T02:14:28.779Z,0.20
2023-05-02T02:16:56.634Z,0.20
2023-05-02T02:19:23.985Z,0.20
2023-05-02T02:21:51.266Z,0.20
2023-05-02T02:24:18.640Z,0.20
2023-05-02T02:26:46.578Z,0.20
2023-05-02T02:29:14.026Z,0.20
2023-05-02T02:31:41.384Z,0.20
2023-05-02T02:34:08.764Z,0.20
2023-05-02T02:36:51.482Z,0.20
2023-05-02T02:39:37.707Z,0.20
2023-05-02T02:42:12.490Z,0.30
2023-05-02T02:45:00.102Z,0.30
2023-05-02T02:47:27.506Z,0.40
2023-05-02T02:50:10.718Z,0.30
2023-05-02T02:52:47.149Z,0.20
2023-05-02T02:55:18.325Z,0.20
2023-05-02T02:57:48.787Z,0.20
2023-05-02T03:00:17.365Z,0.20
2023-05-02T03:02:44.893Z,0.20
2023-05-02T03:05:12.330Z,0.20
2023-05-02T03:07:39.677Z,0.20
2023-05-02T03:10:07.324Z,0.30
2023-05-02T03:12:34.734Z,0.20
2023-05-02T03:15:14.320Z,0.30
2023-05-02T03:17:41.825Z,0.30
2023-05-02T03:20:09.258Z,0.73
2023-05-02T03:22:36.911Z,0.30
2023-05-02T03:25:04.332Z,0.30
2023-05-02T03:27:32.191Z,0.30
2023-05-02T03:30:00.060Z,0.30
2023-05-02T03:32:27.722Z,0.20
2023-05-02T03:34:58.642Z,0.30
2023-05-02T03:37:26.058Z,0.40
2023-05-02T03:39:53.442Z,0.40
2023-05-02T03:42:20.896Z,0.30
2023-05-02T03:44:48.259Z,0.50
2023-05-02T03:47:15.775Z,0.50
2023-05-02T03:49:43.077Z,0.20
2023-05-02T03:52:10.411Z,0.40
2023-05-02T03:54:38.014Z,0.50
2023-05-02T03:57:05.514Z,0.40
2023-05-02T03:59:35.813Z,0.30
2023-05-02T04:02:03.139Z,0.30
2023-05-02T04:04:30.700Z,0.20
2023-05-02T04:06:58.190Z,0.30
2023-05-02T04:09:25.696Z,0.50
2023-05-02T04:11:53.349Z,0.40
2023-05-02T04:14:20.883Z,0.50
2023-05-02T04:16:51.474Z,0.40
2023-05-02T04:19:19.171Z,0.40
2023-05-02T04:21:46.667Z,0.50
2023-05-02T04:24:14.898Z,0.30
2023-05-02T04:26:42.288Z,0.30
2023-05-02T04:29:09.625Z,0.30
2023-05-02T04:31:37.090Z,0.40
2023-05-02T04:34:04.535Z,0.37
2023-05-02T04:36:32.306Z,0.40
2023-05-02T04:38:59.617Z,0.40
2023-05-02T04:41:27.053Z,0.50
2023-05-02T04:43:54.387Z,0.30
2023-05-02T04:46:21.785Z,0.40
2023-05-02T04:48:49.181Z,0.20
2023-05-02T04:51:17.169Z,0.20
2023-05-02T04:53:44.518Z,0.20
2023-05-02T04:56:12.184Z,0.20
2023-05-02T04:58:39.735Z,0.20
2023-05-02T05:01:07.321Z,0.40
2023-05-02T05:03:34.768Z,0.40
2023-05-02T05:06:02.616Z,0.50
2023-05-02T05:08:30.202Z,0.40
2023-05-02T05:10:57.856Z,0.50
2023-05-02T05:13:25.185Z,0.50
2023-05-02T05:15:52.461Z,0.33
2023-05-02T05:18:19.789Z,0.40
2023-05-02T05:20:47.193Z,0.60
2023-05-02T05:23:14.524Z,0.40
2023-05-02T05:25:44.980Z,0.40
2023-05-02T05:28:13.079Z,0.40
2023-05-02T05:30:40.286Z,0.50
2023-05-02T05:33:07.732Z,0.50
2023-05-02T05:35:35.199Z,0.40
2023-05-02T05:38:02.496Z,0.60
2023-05-02T05:40:29.820Z,0.50
2023-05-02T05:42:57.168Z,0.40
2023-05-02T05:45:24.586Z,0.50
2023-05-02T05:47:51.969Z,0.50
2023-05-02T05:50:19.392Z,0.40
2023-05-02T05:52:46.678Z,0.40
2023-05-02T05:55:13.991Z,0.50
2023-05-02T05:57:41.419Z,0.40
2023-05-02T06:00:09.027Z,0.40
2023-05-02T06:02:36.684Z,0.40
2023-05-02T06:05:04.372Z,0.60
2023-05-02T06:07:31.809Z,0.40
2023-05-02T06:09:59.275Z,0.40
2023-05-02T06:12:27.083Z,0.60
2023-05-02T06:14:54.473Z,0.50
2023-05-02T06:17:22.429Z,0.40
2023-05-02T06:19:49.763Z,0.40
2023-05-02T06:22:17.223Z,0.40
2023-05-02T06:24:44.570Z,0.40
2023-05-02T06:27:12.093Z,0.40
2023-05-02T06:29:39.634Z,0.47
2023-05-02T06:32:07.146Z,0.50
2023-05-02T06:34:34.677Z,0.50
2023-05-02T06:37:02.114Z,0.50
2023-05-02T06:39:29.477Z,0.50
2023-05-02T06:41:59.923Z,0.27
2023-05-02T06:44:27.270Z,0.30
2023-05-02T06:46:55.991Z,0.30
2023-05-02T06:49:23.628Z,0.30
2023-05-02T06:51:50.955Z,0.30
2023-05-02T06:54:18.200Z,0.30
2023-05-02T06:56:45.557Z,0.30
2023-05-02T06:59:12.910Z,0.30
2023-05-02T07:01:40.250Z,0.20
2023-05-02T07:04:07.787Z,0.30
2023-05-02T07:06:35.235Z,0.30
2023-05-02T07:09:02.595Z,0.20
2023-05-02T07:11:29.913Z,0.30
2023-05-02T07:13:57.849Z,0.30
2023-05-02T07:16:25.353Z,0.30
2023-05-02T07:18:52.762Z,0.20
2023-05-02T07:21:20.119Z,0.30
2023-05-02T07:23:47.453Z,0.33
2023-05-02T07:26:14.768Z,0.30
2023-05-02T07:28:41.983Z,0.20
2023-05-02T07:31:09.339Z,0.40
2023-05-02T07:33:36.619Z,0.30
2023-05-02T07:36:03.988Z,0.30
2023-05-02T07:38:31.239Z,0.30
2023-05-02T07:40:59.586Z,0.23
2023-05-02T07:43:26.964Z,0.20
2023-05-02T07:45:54.289Z,0.40
2023-05-02T07:48:22.263Z,0.30
2023-05-02T07:50:49.672Z,0.30
2023-05-02T07:53:17.092Z,0.40
2023-05-02T07:55:44.411Z,0.20
2023-05-02T07:58:11.780Z,0.30
2023-05-02T08:00:39.153Z,0.30
2023-05-02T08:03:07.848Z,0.20
2023-05-02T08:05:35.437Z,0.30
2023-05-02T08:08:02.865Z,0.30
2023-05-02T08:10:30.151Z,0.30
2023-05-02T08:12:57.479Z,0.30
2023-05-02T08:15:24.913Z,0.20
2023-05-02T08:17:52.460Z,0.20
2023-05-02T08:20:20.001Z,0.30
2023-05-02T08:22:47.270Z,0.30
2023-05-02T08:25:15.133Z,0.20
2023-05-02T08:27:43.034Z,0.20
2023-05-02T08:30:10.498Z,0.20
2023-05-02T08:32:38.097Z,0.30
2023-05-02T08:35:05.725Z,0.40
2023-05-02T08:37:33.160Z,0.20
2023-05-02T08:40:01.431Z,0.30
2023-05-02T08:42:29.522Z,0.30
2023-05-02T08:44:56.838Z,0.30
2023-05-02T08:47:24.295Z,0.40
2023-05-02T08:49:51.737Z,0.30
2023-05-02T08:52:18.987Z,0.40
2023-05-02T08:54:46.718Z,0.20
2023-05-02T08:57:14.056Z,0.30
2023-05-02T08:59:42.210Z,0.27
2023-05-02T09:02:30.096Z,0.40
2023-05-02T09:04:57.459Z,0.30
2023-05-02T09:07:24.871Z,0.30
2023-05-02T09:09:52.345Z,0.30
2023-05-02T09:12:25.468Z,0.30
2023-05-02T09:15:09.696Z,0.30
2023-05-02T09:17:44.133Z,0.30
2023-05-02T09:20:14.903Z,0.30
2023-05-02T09:22:51.813Z,0.30
2023-05-02T09:25:19.717Z,0.20
2023-05-02T09:28:05.189Z,0.20
2023-05-02T09:30:32.840Z,0.20
2023-05-02T09:33:00.189Z,0.20
2023-05-02T09:35:27.524Z,0.30
2023-05-02T09:37:55.539Z,0.20
2023-05-02T09:40:23.424Z,0.20
2023-05-02T09:42:50.894Z,0.40
2023-05-02T09:45:25.345Z,0.20
2023-05-02T09:47:53.300Z,0.30
2023-05-02T09:50:34.774Z,0.20
2023-05-02T09:53:06.174Z,0.30
2023-05-02T09:55:33.555Z,0.20
2023-05-02T09:58:01.580Z,0.40
2023-05-02T10:00:45.275Z,0.30
2023-05-02T10:03:12.734Z,0.20
2023-05-02T10:05:40.659Z,0.20
2023-05-02T10:08:08.486Z,0.20
2023-05-02T10:10:39.961Z,0.20
2023-05-02T10:13:09.195Z,0.30
2023-05-02T10:15:37.982Z,0.30
2023-05-02T10:18:08.165Z,0.20
2023-05-02T10:20:38.581Z,0.30
2023-05-02T10:23:06.163Z,0.20
2023-05-02T10:25:33.529Z,0.30
2023-05-02T10:28:00.764Z,0.20
2023-05-02T10:30:28.079Z,0.20
2023-05-02T10:32:56.033Z,0.20
2023-05-02T10:35:23.692Z,0.30
2023-05-02T10:37:51.113Z,0.20
2023-05-02T10:40:18.427Z,0.30
2023-05-02T10:42:46.325Z,0.20
2023-05-02T10:45:14.810Z,0.30
2023-05-02T10:47:42.151Z,0.30
2023-05-02T10:50:09.601Z,0.30
2023-05-02T10:52:38.479Z,0.20
2023-05-02T10:55:15.869Z,0.20
2023-05-02T10:57:59.034Z,0.30
2023-05-02T11:00:27.033Z,0.30
2023-05-02T11:02:54.652Z,0.30
2023-05-02T11:05:23.026Z,0.30
2023-05-02T11:07:50.450Z,0.30
2023-05-02T11:10:17.782Z,0.30
2023-05-02T11:12:49.222Z,0.30
2023-05-02T11:15:16.966Z,0.30
2023-05-02T11:18:03.213Z,0.20
2023-05-02T11:20:31.586Z,0.30
2023-05-02T11:22:59.755Z,0.20
2023-05-02T11:25:37.048Z,0.20
2023-05-02T11:28:06.419Z,0.20
2023-05-02T11:30:44.207Z,0.20
2023-05-02T11:33:17.290Z,0.20
2023-05-02T11:35:45.113Z,0.20
2023-05-02T11:38:13.066Z,0.20
2023-05-02T11:40:40.340Z,0.20
2023-05-02T11:43:17.735Z,0.30
2023-05-02T11:45:45.159Z,0.20
2023-05-02T11:48:13.185Z,0.20
2023-05-02T11:51:05.314Z,0.20
2023-05-02T11:53:33.413Z,0.20
2023-05-02T11:56:01.743Z,0.20
2023-05-02T11:58:30.226Z,0.20
2023-05-02T12:00:57.714Z,0.20
2023-05-02T12:03:25.289Z,0.20
2023-05-02T12:05:52.957Z,0.20
2023-05-02T12:08:24.608Z,0.20
2023-05-02T12:10:52.766Z,0.20
2023-05-02T12:13:20.343Z,0.20
2023-05-02T12:15:47.662Z,0.30
2023-05-02T12:18:15.059Z,0.30
2023-05-02T12:20:42.431Z,0.20
2023-05-02T12:23:10.314Z,0.20
2023-05-02T12:25:39.335Z,0.30
2023-05-02T12:28:07.474Z,0.30
2023-05-02T12:30:34.958Z,0.30
2023-05-02T12:33:02.619Z,0.20
2023-05-02T12:35:30.469Z,0.30
2023-05-02T12:38:14.855Z,0.20
2023-05-02T12:40:49.090Z,0.30
2023-05-02T12:43:16.418Z,0.20
2023-05-02T12:45:43.960Z,0.25
2023-05-02T12:48:21.201Z,0.30
2023-05-02T12:50:48.724Z,0.30
2023-05-02T12:53:16.111Z,0.20
2023-05-02T12:55:43.494Z,0.30
2023-05-02T12:58:13.437Z,0.20
2023-05-02T13:00:41.857Z,0.20
2023-05-02T13:03:10.047Z,0.20
2023-05-02T13:05:37.783Z,0.20
2023-05-02T13:08:06.188Z,0.20
2023-05-02T13:10:33.817Z,0.20
2023-05-02T13:13:01.839Z,0.20
2023-05-02T13:15:29.438Z,0.20
2023-05-02T13:17:57.069Z,0.20
2023-05-02T13:20:24.466Z,0.20
2023-05-02T13:22:51.722Z,0.20
2023-05-02T13:25:19.011Z,0.20
2023-05-02T13:27:46.361Z,0.20
2023-05-02T13:30:13.844Z,0.30
2023-05-02T13:32:41.189Z,0.20
2023-05-02T13:35:09.196Z,0.22
2023-05-02T13:37:36.554Z,0.20
2023-05-02T13:40:05.455Z,0.20
2023-05-02T13:42:32.988Z,0.20
2023-05-02T13:45:00.530Z,0.20
2023-05-02T13:47:27.842Z,0.20
2023-05-02T13:49:56.178Z,0.20
2023-05-02T13:52:23.466Z,0.20
2023-05-02T13:54:51.107Z,0.20
2023-05-02T13:57:18.370Z,0.30
2023-05-02T13:59:45.696Z,0.20
2023-05-02T14:02:13.077Z,0.30
2023-05-02T14:04:40.475Z,0.20
2023-05-02T14:07:07.763Z,0.30
2023-05-02T14:09:35.137Z,0.20
2023-05-02T14:12:03.185Z,0.20
2023-05-02T14:14:30.567Z,0.20
2023-05-02T14:16:58.000Z,0.20
2023-05-02T14:19:25.299Z,0.20
2023-05-02T14:21:52.674Z,0.20
2023-05-02T14:24:19.964Z,0.30
2023-05-02T14:26:47.709Z,0.20
2023-05-02T14:29:15.228Z,0.20
2023-05-02T14:31:42.912Z,0.20
2023-05-02T14:34:10.235Z,0.20
2023-05-02T14:36:37.585Z,0.20
2023-05-02T14:39:05.232Z,0.20
2023-05-02T14:41:33.064Z,0.20
2023-05-02T14:44:00.490Z,0.20
2023-05-02T14:46:27.824Z,0.30
2023-05-02T14:48:55.079Z,0.20
2023-05-02T14:51:22.310Z,0.20
2023-05-02T14:53:49.729Z,0.30
2023-05-02T14:56:18.932Z,0.30
2023-05-02T14:58:46.454Z,0.30
2023-05-02T15:01:20.507Z,0.30
2023-05-02T15:04:05.015Z,0.20
2023-05-02T15:06:34.416Z,0.20
2023-05-02T15:09:02.062Z,0.20
2023-05-02T15:11:29.381Z,0.20
2023-05-02T15:13:59.220Z,0.20
2023-05-02T15:16:27.541Z,0.20
2023-05-02T15:18:55.117Z,0.20
2023-05-02T15:21:22.587Z,0.30
2023-05-02T15:23:50.091Z,0.20
2023-05-02T15:26:17.676Z,0.20
2023-05-02T15:28:45.824Z,0.20
2023-05-02T15:31:13.193Z,0.20
2023-05-02T15:33:40.620Z,0.20
2023-05-02T15:36:08.141Z,0.20
2023-05-02T15:38:39.324Z,0.30
2023-05-02T15:41:09.832Z,0.20
2023-05-02T15:43:37.900Z,0.20
2023-05-02T15:46:05.273Z,0.20
2023-05-02T15:48:36.022Z,0.20
2023-05-02T15:51:03.329Z,0.30
2023-05-02T15:53:30.721Z,0.20
2023-05-02T15:55:58.159Z,0.20
2023-05-02T15:58:25.565Z,0.20
2023-05-02T16:00:53.065Z,0.30
2023-05-02T16:03:20.655Z,0.30
2023-05-02T16:05:48.124Z,0.20
2023-05-02T16:08:15.454Z,0.20
2023-05-02T16:10:43.591Z,0.30
2023-05-02T16:13:11.597Z,0.30
2023-05-02T16:15:39.486Z,0.20
2023-05-02T16:18:07.162Z,0.20
2023-05-02T16:20:36.713Z,0.30
2023-05-02T16:23:04.630Z,0.20
2023-05-02T16:25:32.051Z,0.20
2023-05-02T16:28:01.185Z,0.20
2023-05-02T16:30:28.614Z,0.20
2023-05-02T16:32:56.098Z,0.20
2023-05-02T16:35:23.437Z,0.20
2023-05-02T16:37:50.843Z,0.30
2023-05-02T16:40:18.601Z,0.20
2023-05-02T16:42:45.932Z,0.20
2023-05-02T16:45:13.324Z,0.20
2023-05-02T16:47:41.260Z,0.20
2023-05-02T16:50:08.859Z,0.20
2023-05-02T16:52:38.150Z,0.20
2023-05-02T16:55:06.183Z,0.20
2023-05-02T16:57:33.645Z,0.20
2023-05-02T17:00:01.831Z,0.20
2023-05-02T17:02:29.399Z,0.20
2023-05-02T17:04:56.769Z,0.20
2023-05-02T17:07:24.068Z,0.20
2023-05-02T17:09:51.848Z,0.20
2023-05-02T17:12:22.619Z,0.23
2023-05-02T17:14:50.016Z,0.20
2023-05-02T17:17:19.192Z,0.20
2023-05-02T17:19:47.830Z,0.20
2023-05-02T17:22:15.348Z,0.20
2023-05-02T17:24:43.406Z,0.20
2023-05-02T17:27:11.163Z,0.20
2023-05-02T17:29:38.849Z,0.20
2023-05-02T17:32:06.342Z,0.20
2023-05-02T17:34:35.799Z,0.20
2023-05-02T17:37:03.116Z,0.30
2023-05-02T17:39:30.510Z,0.20
2023-05-02T17:41:57.809Z,0.30
2023-05-02T17:44:25.081Z,0.40
2023-05-02T17:46:52.898Z,0.40
2023-05-02T17:49:20.143Z,0.40
2023-05-02T17:51:47.391Z,0.40
2023-05-02T17:54:14.674Z,0.40
2023-05-02T17:56:42.769Z,0.40
2023-05-02T17:59:11.821Z,0.50
2023-05-02T18:01:39.627Z,0.40
2023-05-02T18:04:06.924Z,0.40
2023-05-02T18:06:34.476Z,0.40
2023-05-02T18:09:01.832Z,0.50
2023-05-02T18:11:29.243Z,0.50
2023-05-02T18:13:57.085Z,0.40
2023-05-02T18:16:24.404Z,0.53
2023-05-02T18:18:51.775Z,0.40
2023-05-02T18:21:22.638Z,0.40
2023-05-02T18:23:50.005Z,0.43
2023-05-02T18:26:17.347Z,0.40
2023-05-02T18:28:46.794Z,0.50
2023-05-02T18:31:20.595Z,0.40
2023-05-02T18:33:47.901Z,0.50
2023-05-02T18:36:19.308Z,0.50
2023-05-02T18:38:46.925Z,0.50
2023-05-02T18:41:14.175Z,0.50
2023-05-02T18:43:41.565Z,0.40
2023-05-02T18:46:09.374Z,0.50
2023-05-02T18:48:36.973Z,0.43
2023-05-02T18:51:04.745Z,0.50
2023-05-02T18:53:32.051Z,0.53
2023-05-02T18:55:59.696Z,0.60
2023-05-02T18:58:27.067Z,0.40
2023-05-02T19:00:54.385Z,0.40
2023-05-02T19:03:22.226Z,0.40
2023-05-02T19:05:51.395Z,0.40
2023-05-02T19:08:18.789Z,0.40
2023-05-02T19:10:46.069Z,0.40
2023-05-02T19:13:13.326Z,0.40
2023-05-02T19:15:40.759Z,0.40
2023-05-02T19:18:08.725Z,0.40
2023-05-02T19:20:36.060Z,0.50
2023-05-02T19:23:18.965Z,0.40
2023-05-02T19:25:47.376Z,0.40
2023-05-02T19:28:16.947Z,0.40
2023-05-02T19:30:44.715Z,0.40
2023-05-02T19:33:12.105Z,0.40
2023-05-02T19:35:39.616Z,0.20
2023-05-02T19:38:06.851Z,0.20
2023-05-02T19:40:34.202Z,0.20
2023-05-02T19:43:01.797Z,0.20
2023-05-02T19:45:29.328Z,0.20
2023-05-02T19:47:56.685Z,0.30
2023-05-02T19:50:24.539Z,0.20
2023-05-02T19:52:51.907Z,0.20
2023-05-02T19:55:20.835Z,0.20
2023-05-02T19:57:48.945Z,0.30
2023-05-02T20:00:18.667Z,0.20
2023-05-02T20:02:47.758Z,0.40
2023-05-02T20:05:16.102Z,0.50
2023-05-02T20:07:44.737Z,0.50
2023-05-02T20:10:12.214Z,0.43
2023-05-02T20:12:39.502Z,0.47
2023-05-02T20:15:07.117Z,0.50
2023-05-02T20:17:34.541Z,0.50
2023-05-02T20:20:07.316Z,0.30
2023-05-02T20:22:35.113Z,0.60
2023-05-02T20:25:02.410Z,0.60
2023-05-02T20:27:29.807Z,0.63
2023-05-02T20:29:57.693Z,0.60
2023-05-02T20:32:25.119Z,0.50
2023-05-02T20:34:52.510Z,0.20
2023-05-02T20:37:19.773Z,0.50
2023-05-02T20:39:47.005Z,0.90
2023-05-02T20:42:15.336Z,0.30
2023-05-02T20:44:42.728Z,0.20
2023-05-02T20:47:10.115Z,0.50
2023-05-02T20:49:37.396Z,0.20
2023-05-02T20:52:05.924Z,0.20
2023-05-02T20:54:33.163Z,0.30
2023-05-02T20:57:00.534Z,0.20
2023-05-02T20:59:27.813Z,0.20
2023-05-02T21:01:55.198Z,0.40
2023-05-02T21:04:22.588Z,0.40
2023-05-02T21:06:50.363Z,0.40
2023-05-02T21:09:17.714Z,0.30
2023-05-02T21:11:46.160Z,0.50
2023-05-02T21:14:13.476Z,0.50
2023-05-02T21:16:40.822Z,0.40
2023-05-02T21:19:08.151Z,0.50
2023-05-02T21:21:35.590Z,0.50
2023-05-02T21:24:04.063Z,0.50
2023-05-02T21:26:31.754Z,0.40
2023-05-02T21:28:59.059Z,0.50
2023-05-02T21:31:26.413Z,0.50
2023-05-02T21:33:53.680Z,0.60
2023-05-02T21:36:21.130Z,0.60
2023-05-02T21:38:48.433Z,0.50
2023-05-02T21:41:15.765Z,1.00
2023-05-02T21:43:43.037Z,0.70
2023-05-02T21:46:13.570Z,0.40
2023-05-02T21:48:41.056Z,0.60
2023-05-02T21:51:08.872Z,0.30
2023-05-02T21:53:36.164Z,0.30
2023-05-02T21:56:03.444Z,0.40
2023-05-02T21:58:30.661Z,0.40
2023-05-02T22:00:58.054Z,0.40
2023-05-02T22:03:25.652Z,0.30
2023-05-02T22:05:54.570Z,0.40
2023-05-02T22:08:22.148Z,0.30
2023-05-02T22:10:49.480Z,0.30
2023-05-02T22:13:17.036Z,0.30
2023-05-02T22:15:45.676Z,0.30
2023-05-02T22:18:14.028Z,0.30
2023-05-02T22:20:42.302Z,0.30
2023-05-02T22:23:09.743Z,0.20
2023-05-02T22:25:37.381Z,0.30
2023-05-02T22:28:07.021Z,0.40
2023-05-02T22:30:34.544Z,0.40
2023-05-02T22:33:02.536Z,0.30
2023-05-02T22:35:29.988Z,0.30
2023-05-02T22:38:00.904Z,0.30
2023-05-02T22:40:29.157Z,0.30
2023-05-02T22:42:56.504Z,0.30
2023-05-02T22:45:23.806Z,0.30
2023-05-02T22:47:52.320Z,0.30
2023-05-02T22:50:19.967Z,0.30
2023-05-02T22:52:49.132Z,0.30
2023-05-02T22:55:16.564Z,0.30
2023-05-02T22:57:43.987Z,0.30
2023-05-02T23:00:12.447Z,0.20
2023-05-02T23:02:39.929Z,0.30
2023-05-02T23:05:07.579Z,0.20
2023-05-02T23:07:34.906Z,0.30
2023-05-02T23:10:02.307Z,0.30
2023-05-02T23:12:29.809Z,0.30
2023-05-02T23:14:57.160Z,0.30
2023-05-02T23:17:24.636Z,0.30
2023-05-02T23:19:51.951Z,0.30
2023-05-02T23:22:19.224Z,0.30
2023-05-02T23:24:47.923Z,0.30
2023-05-02T23:27:15.203Z,0.33
2023-05-02T23:29:42.767Z,0.40
2023-05-02T23:32:10.118Z,0.30
2023-05-02T23:34:37.516Z,0.30
2023-05-02T23:37:06.226Z,0.40
2023-05-02T23:39:33.616Z,0.40
2023-05-02T23:42:03.907Z,0.40
2023-05-02T23:44:31.600Z,0.40
2023-05-02T23:46:59.704Z,0.30
2023-05-02T23:49:27.288Z,0.40
2023-05-02T23:51:54.549Z,0.50
2023-05-02T23:54:21.879Z,0.40
2023-05-02T23:56:49.374Z,0.40
2023-05-02T23:59:16.726Z,0.47
